Time;durP1;ratioP1;P1;durP2;ratioP2;P2;SDS_P1;SDS_P2;PMS_P1;PMS_P2;Temp;Humidity;BMP_temperature;BMP_pressure;BME280_temperature;BME280_humidity;BME280_pressure;Samples;Min_cycle;Max_cycle;Signal;HPM_P1;HPM_P2
2022/04/12 00:00:11;;;;;;;0.10;0.10;;;5.80;99.90;;;;;;5110843;28;20095;-82
2022/04/12 00:02:38;;;;;;;0.10;0.10;;;5.70;99.90;;;;;;5077239;28;20044;-82
2022/04/12 00:05:06;;;;;;;0.20;0.20;;;5.80;99.90;;;;;;5061192;28;20038;-82
2022/04/12 00:07:32;;;;;;;0.20;0.20;;;5.70;99.90;;;;;;5077340;28;20040;-82
2022/04/12 00:09:59;;;;;;;0.10;0.10;;;5.70;99.90;;;;;;5077451;28;20047;-82
2022/04/12 00:12:26;;;;;;;0.10;0.10;;;5.80;99.90;;;;;;5077291;28;20044;-83
2022/04/12 00:14:53;;;;;;;0.10;0.10;;;5.80;99.90;;;;;;5060297;28;20039;-82
2022/04/12 00:20:05;;;;;;;0.10;0.10;;;5.80;99.90;;;;;;5096003;28;20481;-82
2022/04/12 00:22:32;;;;;;;0.10;0.10;;;5.80;99.90;;;;;;5060843;28;20038;-82
2022/04/12 00:25:00;;;;;;;0.10;0.10;;;5.80;99.90;;;;;;5056342;28;20044;-82
2022/04/12 00:27:27;;;;;;;0.17;0.17;;;5.80;99.90;;;;;;5076976;28;20038;-82
2022/04/12 00:29:55;;;;;;;0.10;0.10;;;5.80;99.90;;;;;;5076729;28;20096;-82
2022/04/12 00:32:21;;;;;;;0.10;0.10;;;5.70;99.90;;;;;;5110229;28;20044;-82
2022/04/12 00:34:48;;;;;;;0.25;0.17;;;5.70;99.90;;;;;;5076053;28;20420;-82
2022/04/12 00:37:15;;;;;;;0.10;0.10;;;5.70;99.90;;;;;;5076812;28;20044;-82
2022/04/12 00:39:42;;;;;;;0.15;0.15;;;5.70;99.90;;;;;;5075963;28;20105;-82
2022/04/12 00:42:09;;;;;;;0.10;0.10;;;5.80;99.90;;;;;;5060245;28;20546;-82
2022/04/12 00:44:35;;;;;;;0.10;0.10;;;5.60;99.90;;;;;;5089752;28;20098;-82
2022/04/12 00:47:02;;;;;;;0.17;0.17;;;5.60;99.90;;;;;;5072763;28;20044;-82
2022/04/12 00:49:29;;;;;;;0.20;0.20;;;5.60;99.90;;;;;;5040307;28;20037;-82
2022/04/12 00:51:57;;;;;;;0.13;0.13;;;5.60;99.90;;;;;;5072506;28;20051;-82
2022/04/12 00:54:24;;;;;;;0.10;0.10;;;5.60;99.90;;;;;;5073207;28;20047;-82
2022/04/12 00:56:52;;;;;;;0.10;0.10;;;5.60;99.90;;;;;;5089283;28;20127;-82
2022/04/12 00:59:19;;;;;;;0.10;0.10;;;5.60;99.90;;;;;;5056440;28;20037;-82
2022/04/12 01:01:46;;;;;;;0.10;0.10;;;6.10;99.90;;;;;;5056306;28;20090;-82
2022/04/12 01:04:16;;;;;;;0.10;0.10;;;6.00;99.90;;;;;;5073077;28;20079;-82
2022/04/12 01:06:43;;;;;;;0.10;0.10;;;5.80;99.90;;;;;;5066642;28;20052;-82
2022/04/12 01:09:10;;;;;;;0.10;0.10;;;5.50;99.90;;;;;;5089304;28;20049;-82
2022/04/12 01:11:37;;;;;;;0.20;0.20;;;5.60;99.90;;;;;;5073272;28;20044;-82
2022/04/12 01:14:04;;;;;;;0.10;0.10;;;5.60;99.90;;;;;;5056047;28;20719;-82
2022/04/12 01:16:31;;;;;;;0.10;0.10;;;5.50;99.90;;;;;;5056089;28;20052;-83
2022/04/12 01:18:57;;;;;;;0.10;0.10;;;5.60;99.90;;;;;;5063784;28;20036;-82
2022/04/12 01:21:27;;;;;;;0.10;0.10;;;6.10;99.90;;;;;;5072519;28;20037;-82
2022/04/12 01:24:05;;;;;;;0.10;0.10;;;5.70;99.90;;;;;;5088578;28;20048;-82
2022/04/12 01:26:32;;;;;;;0.20;0.20;;;5.50;99.90;;;;;;5056352;28;20056;-82
2022/04/12 01:28:59;;;;;;;0.10;0.10;;;5.50;99.90;;;;;;5072009;28;20040;-82
2022/04/12 01:31:27;;;;;;;0.20;0.20;;;5.50;99.90;;;;;;5072550;28;20098;-82
2022/04/12 01:33:54;;;;;;;0.17;0.17;;;5.50;99.90;;;;;;5088751;28;20096;-82
2022/04/12 01:36:20;;;;;;;0.10;0.10;;;5.40;99.90;;;;;;5056047;28;20501;-82
2022/04/12 01:38:47;;;;;;;0.10;0.10;;;5.40;99.90;;;;;;5055850;28;20037;-82
2022/04/12 01:41:14;;;;;;;0.10;0.10;;;5.40;99.90;;;;;;5073800;28;20043;-82
2022/04/12 01:43:44;;;;;;;0.10;0.10;;;5.80;99.90;;;;;;5040919;28;20449;-82
2022/04/12 01:46:11;;;;;;;0.10;0.10;;;5.40;99.90;;;;;;5072342;28;20032;-82
2022/04/12 01:48:37;;;;;;;0.13;0.13;;;5.60;99.90;;;;;;5072054;28;20478;-83
2022/04/12 01:51:04;;;;;;;0.10;0.10;;;5.40;99.90;;;;;;5041817;28;20123;-82
2022/04/12 01:53:31;;;;;;;0.10;0.10;;;5.40;99.90;;;;;;5077297;28;20043;-82
2022/04/12 01:55:57;;;;;;;0.10;0.10;;;5.30;99.90;;;;;;5062935;28;20036;-82
2022/04/12 01:58:24;;;;;;;0.10;0.10;;;6.10;99.90;;;;;;5096375;28;20044;-82
2022/04/12 02:00:51;;;;;;;0.20;0.20;;;5.30;99.90;;;;;;5063297;28;20093;-82
2022/04/12 02:03:17;;;;;;;0.13;0.13;;;5.30;99.90;;;;;;5079648;28;20616;-82
2022/04/12 02:05:45;;;;;;;0.10;0.10;;;5.60;99.90;;;;;;5063441;28;20089;-82
2022/04/12 02:08:11;;;;;;;0.10;0.10;;;5.30;99.90;;;;;;5079348;28;20040;-82
2022/04/12 02:10:38;;;;;;;0.10;0.10;;;5.40;99.90;;;;;;5063197;28;20040;-82
2022/04/12 02:13:05;;;;;;;0.10;0.10;;;5.30;99.90;;;;;;5062948;28;20507;-82
2022/04/12 02:15:33;;;;;;;0.20;0.20;;;5.40;99.90;;;;;;5095931;28;20096;-82
2022/04/12 02:18:00;;;;;;;0.10;0.10;;;5.30;99.90;;;;;;5112196;28;20036;-82
2022/04/12 02:20:27;;;;;;;0.20;0.20;;;5.30;99.90;;;;;;5096025;28;20036;-82
2022/04/12 02:22:54;;;;;;;0.10;0.10;;;5.30;99.90;;;;;;5095799;28;20098;-82
2022/04/12 02:25:21;;;;;;;0.20;0.20;;;5.60;99.90;;;;;;5079334;28;20128;-82
2022/04/12 02:27:47;;;;;;;0.20;0.20;;;5.40;99.90;;;;;;5079524;28;20109;-82
2022/04/12 02:30:14;;;;;;;0.20;0.20;;;5.40;99.90;;;;;;5111933;28;20409;-82
2022/04/12 02:32:41;;;;;;;0.10;0.10;;;5.80;99.90;;;;;;5079158;28;20055;-82
2022/04/12 02:35:12;;;;;;;0.10;0.10;;;5.40;99.90;;;;;;5080070;28;20079;-82
2022/04/12 02:37:38;;;;;;;0.10;0.10;;;5.40;99.90;;;;;;5062815;28;20040;-82
2022/04/12 02:40:06;;;;;;;0.98;0.40;;;5.40;99.90;;;;;;5062399;28;20480;-82
2022/04/12 02:42:33;;;;;;;0.20;0.20;;;5.40;99.90;;;;;;5095523;28;20046;-82
2022/04/12 02:44:59;;;;;;;0.20;0.20;;;5.40;99.90;;;;;;5078448;28;20123;-82
2022/04/12 02:47:28;;;;;;;0.20;0.20;;;5.40;99.90;;;;;;5078947;28;20043;-82
2022/04/12 02:49:54;;;;;;;0.20;0.20;;;5.40;99.90;;;;;;5062294;28;20520;-81
2022/04/12 02:52:21;;;;;;;0.20;0.20;;;5.30;99.90;;;;;;5095775;28;20044;-82
2022/04/12 02:54:48;;;;;;;0.30;0.30;;;5.40;99.90;;;;;;5094076;28;20461;-82
2022/04/12 02:57:15;;;;;;;0.10;0.10;;;5.40;99.90;;;;;;5042166;28;20040;-82
2022/04/12 02:59:41;;;;;;;0.10;0.10;;;5.50;99.90;;;;;;5058953;28;20386;-82
2022/04/12 03:02:08;;;;;;;0.10;0.10;;;5.40;99.90;;;;;;5042977;28;20094;-82
2022/04/12 03:04:35;;;;;;;0.10;0.10;;;5.40;99.90;;;;;;5095256;28;20481;-82
2022/04/12 03:07:02;;;;;;;0.10;0.10;;;5.40;99.90;;;;;;5078212;28;20044;-82
2022/04/12 03:09:29;;;;;;;0.15;0.15;;;5.30;99.90;;;;;;5078628;28;20044;-82
2022/04/12 03:11:55;;;;;;;0.10;0.10;;;5.30;99.90;;;;;;5095117;28;20087;-82
2022/04/12 03:14:22;;;;;;;0.10;0.10;;;5.70;99.90;;;;;;5094843;28;20046;-82
2022/04/12 03:16:49;;;;;;;0.20;0.20;;;5.30;99.90;;;;;;5077856;28;20071;-82
2022/04/12 03:19:15;;;;;;;0.10;0.10;;;5.30;99.90;;;;;;5078158;28;20089;-81
2022/04/12 03:21:42;;;;;;;0.20;0.20;;;5.20;99.90;;;;;;5078199;28;20036;-82
2022/04/12 03:24:09;;;;;;;0.10;0.10;;;5.20;99.90;;;;;;5111197;28;20032;-82
2022/04/12 03:26:35;;;;;;;0.10;0.10;;;5.20;99.90;;;;;;5095217;28;20036;-82
2022/04/12 03:29:02;;;;;;;0.20;0.20;;;5.50;99.90;;;;;;5077690;28;20036;-82
2022/04/12 03:31:29;;;;;;;0.20;0.20;;;5.20;99.90;;;;;;5061661;28;20051;-82
2022/04/12 03:33:56;;;;;;;0.10;0.10;;;5.20;99.90;;;;;;5077681;28;20059;-82
2022/04/12 03:36:26;;;;;;;0.10;0.10;;;5.40;99.90;;;;;;5061257;28;21946;-82
2022/04/12 03:38:52;;;;;;;0.10;0.10;;;5.60;99.90;;;;;;5094596;28;20036;-82
2022/04/12 03:41:23;;;;;;;0.10;0.10;;;5.10;99.90;;;;;;5077797;28;20447;-82
2022/04/12 03:43:51;;;;;;;0.10;0.10;;;5.30;99.90;;;;;;5078241;28;20425;-82
2022/04/12 03:46:18;;;;;;;0.20;0.20;;;5.10;99.90;;;;;;5093777;28;20078;-82
2022/04/12 03:48:45;;;;;;;0.10;0.10;;;5.00;99.90;;;;;;5094090;28;20538;-82
2022/04/12 03:51:12;;;;;;;0.10;0.10;;;5.00;99.90;;;;;;5077426;28;20036;-82
2022/04/12 03:53:40;;;;;;;0.10;0.10;;;5.00;99.90;;;;;;5093610;28;20068;-82
2022/04/12 03:56:07;;;;;;;0.20;0.20;;;5.50;99.90;;;;;;5073500;28;20039;-81
2022/04/12 03:58:38;;;;;;;0.20;0.20;;;5.20;99.90;;;;;;5073901;28;20032;-82
2022/04/12 04:01:05;;;;;;;0.20;0.20;;;5.00;99.90;;;;;;5092330;28;20040;-82
2022/04/12 04:03:32;;;;;;;0.10;0.10;;;5.00;99.90;;;;;;5077137;28;20039;-82
2022/04/12 04:05:59;;;;;;;0.20;0.20;;;4.90;99.90;;;;;;5110763;28;20508;-82
2022/04/12 04:08:26;;;;;;;0.10;0.10;;;4.80;99.90;;;;;;5060324;28;20055;-82
2022/04/12 04:10:52;;;;;;;0.20;0.20;;;4.90;99.90;;;;;;5077164;28;20075;-82
2022/04/12 04:13:19;;;;;;;0.10;0.10;;;4.90;99.90;;;;;;5060239;28;20039;-82
2022/04/12 04:15:46;;;;;;;0.10;0.10;;;4.90;99.90;;;;;;5077097;28;20079;-82
2022/04/12 04:18:13;;;;;;;0.10;0.10;;;4.80;99.90;;;;;;5076701;28;20044;-82
2022/04/12 04:20:42;;;;;;;0.10;0.10;;;4.90;99.90;;;;;;5093930;28;20040;-82
2022/04/12 04:23:09;;;;;;;0.20;0.20;;;4.90;99.90;;;;;;5076958;28;20043;-82
2022/04/12 04:25:36;;;;;;;0.10;0.10;;;4.90;99.90;;;;;;5093492;28;20122;-82
2022/04/12 04:28:05;;;;;;;0.10;0.10;;;4.90;99.90;;;;;;5109852;28;20040;-82
2022/04/12 04:30:33;;;;;;;0.20;0.20;;;4.90;99.90;;;;;;5060895;28;20488;-82
2022/04/12 04:33:00;;;;;;;0.20;0.20;;;4.90;99.90;;;;;;5109183;28;20416;-82
2022/04/12 04:35:27;;;;;;;0.10;0.10;;;4.90;99.90;;;;;;5108751;28;20056;-82
2022/04/12 04:37:54;;;;;;;0.10;0.10;;;4.90;99.90;;;;;;5051310;28;20048;-82
2022/04/12 04:40:22;;;;;;;0.13;0.13;;;5.40;99.90;;;;;;5092680;28;20044;-82
2022/04/12 04:42:52;;;;;;;0.95;0.63;;;4.80;99.90;;;;;;5092957;28;20131;-82
2022/04/12 04:45:19;;;;;;;0.10;0.10;;;4.80;99.90;;;;;;5076156;28;20032;-82
2022/04/12 04:48:00;;;;;;;0.13;0.13;;;4.90;99.90;;;;;;5093280;28;20412;-82
2022/04/12 04:50:30;;;;;;;0.20;0.20;;;4.80;99.90;;;;;;5088855;28;20063;-82
2022/04/12 04:52:58;;;;;;;0.10;0.10;;;4.80;99.90;;;;;;5071037;28;20044;-82
2022/04/12 04:55:25;;;;;;;0.20;0.20;;;4.80;99.90;;;;;;5098773;28;20064;-82
2022/04/12 04:57:58;;;;;;;0.10;0.10;;;4.80;99.90;;;;;;5089409;28;20047;-83
2022/04/12 05:00:29;;;;;;;0.20;0.20;;;4.90;99.90;;;;;;5109279;28;20128;-82
2022/04/12 05:02:57;;;;;;;0.10;0.10;;;4.70;99.90;;;;;;5109807;28;20104;-82
2022/04/12 05:05:24;;;;;;;0.20;0.20;;;5.10;99.90;;;;;;5107367;28;20130;-82
2022/04/12 05:07:53;;;;;;;0.20;0.20;;;4.70;99.90;;;;;;5056707;28;20079;-82
2022/04/12 05:10:22;;;;;;;0.20;0.20;;;4.70;99.90;;;;;;5072274;28;20501;-81
2022/04/12 05:12:49;;;;;;;0.10;0.10;;;4.90;99.90;;;;;;5089276;28;20405;-82
2022/04/12 05:15:16;;;;;;;0.20;0.20;;;4.80;99.90;;;;;;5055691;28;20043;-82
2022/04/12 05:17:53;;;;;;;0.28;0.28;;;4.80;99.90;;;;;;5072693;28;20561;-82
2022/04/12 05:20:22;;;;;;;0.13;0.13;;;4.80;99.90;;;;;;5072054;28;20400;-82
2022/04/12 05:22:49;;;;;;;0.17;0.17;;;4.90;99.90;;;;;;5072689;28;20044;-83
2022/04/12 05:25:16;;;;;;;0.20;0.20;;;5.20;99.90;;;;;;5061766;28;20033;-82
2022/04/12 05:27:43;;;;;;;0.20;0.20;;;4.90;99.90;;;;;;5071932;28;20072;-83
2022/04/12 05:30:13;;;;;;;0.10;0.10;;;4.90;99.90;;;;;;5071823;28;20040;-82
2022/04/12 05:32:40;;;;;;;0.10;0.10;;;4.80;99.90;;;;;;5099073;28;20039;-82
2022/04/12 05:35:08;;;;;;;0.20;0.20;;;4.80;99.90;;;;;;5096332;28;20420;-82
2022/04/12 05:37:45;;;;;;;0.20;0.20;;;4.80;99.90;;;;;;5086412;28;20044;-83
2022/04/12 05:40:14;;;;;;;0.10;0.10;;;4.80;99.90;;;;;;5099554;28;20085;-82
2022/04/12 05:42:41;;;;;;;0.20;0.20;;;4.80;99.90;;;;;;5082170;28;20035;-82
2022/04/12 05:45:09;;;;;;;0.20;0.20;;;4.80;99.90;;;;;;5082769;28;20126;-82
2022/04/12 05:47:43;;;;;;;0.17;0.17;;;4.80;99.90;;;;;;5081915;28;20036;-82
2022/04/12 05:50:11;;;;;;;0.20;0.20;;;4.80;99.90;;;;;;5116257;28;20075;-82
2022/04/12 05:52:41;;;;;;;0.10;0.10;;;4.80;99.90;;;;;;5093847;28;20082;-82
2022/04/12 05:55:10;;;;;;;0.10;0.10;;;5.30;99.90;;;;;;5081115;28;20481;-82
2022/04/12 05:57:38;;;;;;;0.20;0.20;;;4.90;99.90;;;;;;5095285;28;20062;-82
2022/04/12 06:00:07;;;;;;;0.10;0.10;;;5.00;99.90;;;;;;5046354;28;20036;-82
2022/04/12 06:02:34;;;;;;;0.20;0.20;;;5.00;99.90;;;;;;5111747;28;20409;-83
2022/04/12 06:05:01;;;;;;;0.10;0.10;;;5.20;99.90;;;;;;5045822;28;20040;-83
2022/04/12 06:07:32;;;;;;;0.10;0.10;;;5.30;99.90;;;;;;5045603;28;20040;-82
2022/04/12 06:10:05;;;;;;;0.20;0.20;;;5.30;99.90;;;;;;5091433;28;20503;-82
2022/04/12 06:12:32;;;;;;;0.30;0.30;;;5.50;99.90;;;;;;5062067;28;20123;-82
2022/04/12 06:14:58;;;;;;;0.13;0.13;;;5.70;99.90;;;;;;5112128;28;20083;-80
2022/04/12 06:17:32;;;;;;;0.10;0.10;;;5.80;99.90;;;;;;5045563;28;20036;-83
2022/04/12 06:20:05;;;;;;;0.10;0.10;;;6.10;99.90;;;;;;5051608;28;20110;-84
2022/04/12 06:22:33;;;;;;;0.20;0.20;;;6.20;99.90;;;;;;5090979;28;20036;-82
2022/04/12 06:25:00;;;;;;;0.10;0.10;;;6.30;99.90;;;;;;5098682;28;20051;-82
2022/04/12 06:27:39;;;;;;;0.10;0.10;;;6.40;99.90;;;;;;5111608;28;20047;-82
2022/04/12 06:30:11;;;;;;;0.10;0.10;;;6.50;99.90;;;;;;5112075;28;20549;-83
2022/04/12 06:32:38;;;;;;;0.10;0.10;;;6.60;99.90;;;;;;5099280;28;20044;-83
2022/04/12 06:35:09;;;;;;;0.10;0.10;;;6.70;99.90;;;;;;5114961;28;20059;-83
2022/04/12 06:37:36;;;;;;;0.10;0.10;;;6.70;99.90;;;;;;5107913;28;20033;-82
2022/04/12 06:40:07;;;;;;;0.10;0.10;;;6.80;99.90;;;;;;5057513;28;20055;-84
2022/04/12 06:42:37;;;;;;;0.10;0.10;;;6.80;99.90;;;;;;5111278;28;20404;-82
2022/04/12 06:45:05;;;;;;;0.10;0.10;;;6.90;99.90;;;;;;5095039;28;20184;-82
2022/04/12 06:47:37;;;;;;;0.10;0.10;;;7.00;99.90;;;;;;5059641;28;20074;-82
2022/04/12 06:50:05;;;;;;;0.10;0.10;;;7.10;99.90;;;;;;5091845;28;20044;-85
2022/04/12 06:52:38;;;;;;;0.20;0.20;;;7.10;99.90;;;;;;5065116;28;20090;-82
2022/04/12 06:55:05;;;;;;;0.10;0.10;;;7.20;99.90;;;;;;5074974;28;20158;-84
2022/04/12 06:57:36;;;;;;;0.10;0.10;;;7.20;99.90;;;;;;5074328;28;20485;-82
2022/04/12 07:00:06;;;;;;;0.13;0.13;;;7.10;99.90;;;;;;5061277;28;20532;-82
2022/04/12 07:02:33;;;;;;;0.10;0.10;;;7.30;99.90;;;;;;5074543;28;20075;-82
2022/04/12 07:05:00;;;;;;;0.10;0.10;;;7.40;99.90;;;;;;5074601;28;20044;-82
2022/04/12 07:07:27;;;;;;;0.10;0.10;;;7.40;99.90;;;;;;5058396;28;20489;-82
2022/04/12 07:09:55;;;;;;;0.10;0.10;;;7.40;99.90;;;;;;5063912;28;20037;-84
2022/04/12 07:12:23;;;;;;;0.10;0.10;;;7.50;99.90;;;;;;5091259;28;20041;-82
2022/04/12 07:14:50;;;;;;;0.10;0.10;;;7.60;99.90;;;;;;5090983;28;20512;-82
2022/04/12 07:17:17;;;;;;;0.10;0.10;;;7.70;99.90;;;;;;5074752;28;20040;-84
2022/04/12 07:19:44;;;;;;;0.10;0.10;;;7.80;99.90;;;;;;5075811;28;20033;-82
2022/04/12 07:22:11;;;;;;;0.10;0.10;;;7.80;99.90;;;;;;5074483;28;20123;-82
2022/04/12 07:24:37;;;;;;;0.10;0.10;;;7.90;99.90;;;;;;5057618;28;20139;-83
2022/04/12 07:27:04;;;;;;;0.20;0.20;;;8.00;99.90;;;;;;5057887;28;20094;-84
2022/04/12 07:29:31;;;;;;;0.10;0.10;;;8.00;99.90;;;;;;5062832;28;20040;-83
2022/04/12 07:31:58;;;;;;;0.10;0.10;;;8.10;99.90;;;;;;5057938;28;20123;-84
2022/04/12 07:34:24;;;;;;;0.10;0.10;;;8.10;99.90;;;;;;5060831;28;20093;-83
2022/04/12 07:36:53;;;;;;;0.10;0.10;;;8.20;99.90;;;;;;5070457;28;20056;-83
2022/04/12 07:39:21;;;;;;;0.10;0.10;;;8.20;99.90;;;;;;5035450;28;20068;-83
2022/04/12 07:41:48;;;;;;;0.10;0.10;;;8.20;99.90;;;;;;5087112;28;20083;-84
2022/04/12 07:44:15;;;;;;;0.10;0.10;;;8.30;99.90;;;;;;5087537;28;20394;-83
2022/04/12 07:46:42;;;;;;;0.10;0.10;;;8.40;99.90;;;;;;5062267;28;20033;-82
2022/04/12 07:49:09;;;;;;;0.10;0.10;;;8.50;99.90;;;;;;5048942;28;20466;-85
2022/04/12 07:51:36;;;;;;;0.20;0.13;;;8.60;99.90;;;;;;5073094;28;20041;-85
2022/04/12 07:54:04;;;;;;;0.10;0.10;;;8.80;99.90;;;;;;5050556;28;20091;-84
2022/04/12 07:56:31;;;;;;;0.00;0.00;;;8.90;99.90;;;;;;5050162;28;20049;-83
2022/04/12 07:58:58;;;;;;;0.10;0.10;;;9.10;99.90;;;;;;5039380;28;20044;-84
2022/04/12 08:01:25;;;;;;;0.10;0.10;;;9.30;99.90;;;;;;5040798;28;20510;-85
2022/04/12 08:03:51;;;;;;;0.10;0.10;;;9.40;99.90;;;;;;5041326;28;20044;-83
2022/04/12 08:06:18;;;;;;;0.10;0.10;;;9.50;99.90;;;;;;5023400;28;20410;-83
2022/04/12 08:08:45;;;;;;;0.05;0.05;;;9.70;99.90;;;;;;5038495;28;20029;-85
2022/04/12 08:11:12;;;;;;;0.10;0.10;;;9.80;99.90;;;;;;5068060;28;20065;-84
2022/04/12 08:13:42;;;;;;;0.10;0.10;;;9.90;99.90;;;;;;5059205;28;20086;-83
2022/04/12 08:16:09;;;;;;;0.10;0.10;;;10.00;99.90;;;;;;5056222;28;20116;-85
2022/04/12 08:18:43;;;;;;;0.10;0.10;;;10.30;99.90;;;;;;5052234;28;20042;-83
2022/04/12 08:21:09;;;;;;;0.10;0.10;;;10.20;99.90;;;;;;5059026;28;20040;-85
2022/04/12 08:23:36;;;;;;;0.10;0.10;;;10.40;99.90;;;;;;5059578;28;20041;-85
2022/04/12 08:26:03;;;;;;;0.10;0.10;;;10.60;99.90;;;;;;5064132;28;20037;-85
2022/04/12 08:28:30;;;;;;;0.10;0.10;;;10.60;99.90;;;;;;5049658;28;20037;-85
2022/04/12 08:30:56;;;;;;;0.10;0.10;;;10.70;99.90;;;;;;5035811;28;20033;-88
2022/04/12 08:33:23;;;;;;;0.00;0.00;;;10.90;99.90;;;;;;5047848;28;20029;-85
2022/04/12 08:35:50;;;;;;;0.10;0.10;;;11.10;99.90;;;;;;5081628;28;20548;-85
2022/04/12 08:38:16;;;;;;;0.00;0.00;;;11.20;99.90;;;;;;5072338;28;20108;-85
2022/04/12 08:40:44;;;;;;;0.10;0.10;;;11.30;99.90;;;;;;5074665;28;20037;-85
2022/04/12 08:43:15;;;;;;;0.00;0.00;;;11.40;99.90;;;;;;5066917;28;20514;-85
2022/04/12 08:45:45;;;;;;;0.00;0.00;;;11.60;99.90;;;;;;5085767;28;20041;-84
2022/04/12 08:48:12;;;;;;;0.00;0.00;;;11.80;99.90;;;;;;5077177;28;20044;-84
2022/04/12 08:50:40;;;;;;;0.10;0.10;;;11.90;99.90;;;;;;5052743;28;20072;-86
2022/04/12 08:53:07;;;;;;;0.00;0.00;;;11.90;99.90;;;;;;5080859;28;20044;-85
2022/04/12 08:55:34;;;;;;;0.00;0.00;;;12.10;99.90;;;;;;5087459;28;20493;-85
2022/04/12 08:58:01;;;;;;;0.10;0.10;;;12.20;99.90;;;;;;5068554;28;20049;-84
2022/04/12 09:00:28;;;;;;;0.00;0.00;;;12.40;99.90;;;;;;5044596;28;20032;-85
2022/04/12 09:02:59;;;;;;;0.20;0.15;;;12.60;99.90;;;;;;5073813;28;20783;-83
2022/04/12 09:05:27;;;;;;;0.50;0.25;;;12.70;99.90;;;;;;5063980;28;20040;-84
2022/04/12 09:07:54;;;;;;;0.10;0.10;;;12.80;99.90;;;;;;5088362;28;20167;-86
2022/04/12 09:10:31;;;;;;;0.10;0.10;;;12.90;99.90;;;;;;5069188;28;20036;-86
2022/04/12 09:13:10;;;;;;;0.00;0.00;;;13.00;99.90;;;;;;5073028;28;20390;-86
2022/04/12 09:15:45;;;;;;;0.00;0.00;;;13.20;99.90;;;;;;5090466;28;20066;-85
2022/04/12 09:18:11;;;;;;;0.32;0.20;;;13.30;99.90;;;;;;5077940;28;20036;-84
2022/04/12 09:20:41;;;;;;;0.00;0.00;;;13.50;99.90;;;;;;5086474;28;20123;-84
2022/04/12 09:23:16;;;;;;;0.00;0.00;;;13.50;99.90;;;;;;5072267;28;20400;-83
2022/04/12 09:25:54;;;;;;;0.00;0.00;;;13.70;99.90;;;;;;5105074;28;20050;-82
2022/04/12 09:28:20;;;;;;;0.00;0.00;;;13.70;99.90;;;;;;5054079;28;20044;-84
2022/04/12 09:30:50;;;;;;;0.00;0.00;;;13.80;99.90;;;;;;5088338;28;20048;-85
2022/04/12 09:33:35;;;;;;;0.10;0.10;;;13.90;99.90;;;;;;5072460;28;20046;-83
2022/04/12 09:36:02;;;;;;;0.00;0.00;;;14.00;99.90;;;;;;5068051;28;20056;-84
2022/04/12 09:38:37;;;;;;;0.35;0.35;;;14.00;99.90;;;;;;5068625;28;20080;-82
2022/04/12 09:41:22;;;;;;;0.10;0.10;;;14.10;99.90;;;;;;5062223;28;20038;-82
2022/04/12 09:44:11;;;;;;;0.00;0.00;;;14.30;99.90;;;;;;5048390;28;20033;-83
2022/04/12 09:46:39;;;;;;;0.03;0.03;;;14.40;99.90;;;;;;5078938;28;20041;-84
2022/04/12 09:49:10;;;;;;;0.00;0.00;;;14.50;99.90;;;;;;5052059;28;20870;-84
2022/04/12 09:51:38;;;;;;;0.00;0.00;;;14.50;99.90;;;;;;5066499;28;20037;-83
2022/04/12 09:54:07;;;;;;;0.00;0.00;;;14.50;99.30;;;;;;5031762;28;20048;-84
2022/04/12 09:56:35;;;;;;;0.00;0.00;;;14.70;99.10;;;;;;5071973;28;20517;-84
2022/04/12 09:59:07;;;;;;;0.20;0.20;;;14.70;98.30;;;;;;5068259;28;20037;-83
2022/04/12 10:01:39;;;;;;;0.08;0.08;;;14.90;99.40;;;;;;5051183;28;20041;-83
2022/04/12 10:04:10;;;;;;;0.28;0.20;;;14.90;99.80;;;;;;5036061;28;20045;-83
2022/04/12 10:06:42;;;;;;;0.00;0.00;;;14.90;98.20;;;;;;5084810;28;20072;-83
2022/04/12 10:09:14;;;;;;;0.00;0.00;;;14.90;99.80;;;;;;5051875;28;20419;-84
2022/04/12 10:11:41;;;;;;;0.00;0.00;;;15.10;99.80;;;;;;5069314;28;20580;-82
2022/04/12 10:14:10;;;;;;;0.00;0.00;;;15.20;99.90;;;;;;5055324;28;20167;-82
2022/04/12 10:16:39;;;;;;;0.10;0.10;;;15.40;99.60;;;;;;5072059;28;20037;-83
2022/04/12 10:19:06;;;;;;;0.00;0.00;;;15.40;98.10;;;;;;5087943;28;20041;-83
2022/04/12 10:21:35;;;;;;;0.45;0.35;;;15.50;99.20;;;;;;5069239;28;20037;-83
2022/04/12 10:24:02;;;;;;;0.00;0.00;;;15.50;98.00;;;;;;5088255;28;20106;-83
2022/04/12 10:26:30;;;;;;;0.00;0.00;;;15.50;97.60;;;;;;5068215;28;20041;-84
2022/04/12 10:29:01;;;;;;;0.00;0.00;;;15.60;98.10;;;;;;5067443;28;20040;-83
2022/04/12 10:31:32;;;;;;;0.08;0.08;;;15.70;99.10;;;;;;5046443;28;20112;-83
2022/04/12 10:34:02;;;;;;;0.35;0.35;;;15.90;98.50;;;;;;5056690;28;20060;-83
2022/04/12 10:36:58;;;;;;;0.08;0.08;;;16.00;98.40;;;;;;5075574;28;20041;-83
2022/04/12 10:39:30;;;;;;;0.00;0.00;;;16.00;97.90;;;;;;5101719;28;20090;-83
2022/04/12 10:42:01;;;;;;;0.70;0.25;;;16.00;96.30;;;;;;5101483;28;20037;-83
2022/04/12 10:44:39;;;;;;;0.73;0.50;;;16.10;97.60;;;;;;5085824;28;20036;-83
2022/04/12 10:47:19;;;;;;;0.03;0.03;;;16.10;96.80;;;;;;5095783;28;20044;-83
2022/04/12 10:49:52;;;;;;;0.10;0.10;;;16.20;96.50;;;;;;5083944;28;20074;-83
2022/04/12 10:52:19;;;;;;;0.10;0.10;;;16.20;97.10;;;;;;5101194;28;20416;-83
2022/04/12 10:54:47;;;;;;;0.00;0.00;;;16.30;97.70;;;;;;5061629;28;20039;-84
2022/04/12 10:57:16;;;;;;;0.25;0.20;;;16.20;97.20;;;;;;5078307;28;20044;-84
2022/04/12 10:59:58;;;;;;;0.20;0.20;;;16.30;96.40;;;;;;5111435;28;20042;-83
2022/04/12 11:02:35;;;;;;;0.22;0.22;;;16.30;96.30;;;;;;5084536;28;20033;-83
2022/04/12 11:05:02;;;;;;;0.22;0.17;;;16.40;96.60;;;;;;5097407;28;20040;-82
2022/04/12 11:07:29;;;;;;;0.00;0.00;;;16.50;96.20;;;;;;5093542;28;20047;-83
2022/04/12 11:10:20;;;;;;;0.73;0.10;;;16.50;96.60;;;;;;5093184;28;20070;-83
2022/04/12 11:12:48;;;;;;;0.00;0.00;;;16.50;96.60;;;;;;5085702;28;20040;-84
2022/04/12 11:15:29;;;;;;;0.22;0.20;;;16.60;95.40;;;;;;5074575;28;20051;-83
2022/04/12 11:18:13;;;;;;;0.10;0.10;;;16.70;97.30;;;;;;5041746;28;20101;-84
2022/04/12 11:20:46;;;;;;;0.40;0.30;;;16.60;96.20;;;;;;5074869;28;20033;-84
2022/04/12 11:23:14;;;;;;;0.15;0.15;;;16.80;95.00;;;;;;5063123;28;20044;-84
2022/04/12 11:25:51;;;;;;;0.28;0.17;;;16.90;96.50;;;;;;5111474;28;20424;-84
2022/04/12 11:28:23;;;;;;;0.10;0.10;;;17.10;96.20;;;;;;5095004;28;20051;-84
2022/04/12 11:30:58;;;;;;;0.52;0.30;;;17.20;95.80;;;;;;5094382;28;20153;-84
2022/04/12 11:33:29;;;;;;;0.20;0.15;;;17.10;95.20;;;;;;5111518;28;20044;-83
2022/04/12 11:35:57;;;;;;;0.85;0.47;;;17.20;97.00;;;;;;5093840;28;20149;-84
2022/04/12 11:38:24;;;;;;;0.20;0.20;;;17.30;96.70;;;;;;5093802;28;20520;-83
2022/04/12 11:40:51;;;;;;;1.05;0.50;;;17.40;94.80;;;;;;5105272;28;20046;-84
2022/04/12 11:43:26;;;;;;;0.63;0.30;;;17.40;95.50;;;;;;5073728;28;20736;-83
2022/04/12 11:45:58;;;;;;;0.10;0.10;;;17.40;96.30;;;;;;5092117;28;20577;-83
2022/04/12 11:48:29;;;;;;;0.10;0.10;;;17.40;94.30;;;;;;5090576;28;20516;-83
2022/04/12 11:50:57;;;;;;;0.47;0.28;;;17.40;93.90;;;;;;5057347;28;20147;-82
2022/04/12 11:53:26;;;;;;;0.20;0.20;;;17.40;94.10;;;;;;5074272;28;20119;-83
2022/04/12 11:55:59;;;;;;;0.47;0.30;;;17.40;93.40;;;;;;5110661;28;20040;-84
2022/04/12 11:58:29;;;;;;;0.28;0.17;;;17.40;94.20;;;;;;5073800;28;20040;-80
2022/04/12 12:00:56;;;;;;;0.82;0.45;;;17.50;94.50;;;;;;5084595;28;20031;-82
2022/04/12 12:03:24;;;;;;;1.02;0.70;;;17.50;94.00;;;;;;5064874;28;20390;-87
2022/04/12 12:05:50;;;;;;;1.35;0.70;;;17.50;94.60;;;;;;5090519;28;20043;-81
2022/04/12 12:08:20;;;;;;;0.38;0.28;;;17.60;94.30;;;;;;5040846;28;20045;-84
2022/04/12 12:10:53;;;;;;;0.15;0.15;;;17.70;96.10;;;;;;5082178;28;20116;-83
2022/04/12 12:13:23;;;;;;;0.45;0.22;;;17.70;93.70;;;;;;5107376;28;20041;-82
2022/04/12 12:15:50;;;;;;;0.15;0.10;;;17.60;94.80;;;;;;5057443;28;20040;-83
2022/04/12 12:18:19;;;;;;;1.20;0.35;;;17.50;95.20;;;;;;5073231;28;20382;-86
2022/04/12 12:20:47;;;;;;;0.17;0.17;;;17.50;95.10;;;;;;5068447;28;20043;-84
2022/04/12 12:23:14;;;;;;;0.77;0.40;;;17.50;95.00;;;;;;5089626;28;20711;-84
2022/04/12 12:25:46;;;;;;;0.20;0.13;;;17.60;95.50;;;;;;5093424;28;20120;-84
2022/04/12 12:28:21;;;;;;;0.38;0.20;;;17.60;94.80;;;;;;5110201;28;20043;-82
2022/04/12 12:31:04;;;;;;;0.05;0.05;;;17.70;94.50;;;;;;5093451;28;20074;-83
2022/04/12 12:33:43;;;;;;;0.60;0.15;;;17.70;93.80;;;;;;5093236;28;20036;-84
2022/04/12 12:36:20;;;;;;;0.10;0.10;;;17.80;94.60;;;;;;5093046;28;20054;-83
2022/04/12 12:38:48;;;;;;;1.00;0.63;;;17.90;94.50;;;;;;5109818;28;20725;-84
2022/04/12 12:41:28;;;;;;;0.38;0.28;;;18.00;95.20;;;;;;5092771;28;20382;-83
2022/04/12 12:44:00;;;;;;;0.20;0.20;;;18.20;94.30;;;;;;5110000;28;20507;-84
2022/04/12 12:46:29;;;;;;;1.25;0.50;;;18.20;93.30;;;;;;5077679;28;20118;-83
2022/04/12 12:49:10;;;;;;;0.88;0.43;;;18.20;93.50;;;;;;5077141;28;20047;-83
2022/04/12 12:51:38;;;;;;;1.45;0.50;;;18.20;92.00;;;;;;5077724;28;20032;-84
2022/04/12 12:54:07;;;;;;;1.05;0.47;;;18.30;92.60;;;;;;5076535;28;20040;-83
2022/04/12 12:56:39;;;;;;;1.45;0.40;;;18.40;92.70;;;;;;5076903;28;20443;-84
2022/04/12 12:59:17;;;;;;;1.52;0.80;;;18.50;92.00;;;;;;5093117;28;20111;-83
2022/04/12 13:01:52;;;;;;;0.30;0.22;;;18.60;91.90;;;;;;5093166;28;20086;-84
2022/04/12 13:04:23;;;;;;;0.75;0.30;;;18.60;90.70;;;;;;5091997;28;20036;-83